createdAt,value
2018-08-09T04:00:36.043Z,81.48
2018-08-09T04:01:36.020Z,81.28
2018-08-09T04:02:36.028Z,81.08
2018-08-09T04:03:35.997Z,81.79
2018-08-09T04:04:35.962Z,82.29
2018-08-09T04:05:35.956Z,81.79
2018-08-09T04:06:35.956Z,82.70
2018-08-09T04:07:35.932Z,82.70
2018-08-09T04:08:35.929Z,82.70
2018-08-09T04:09:35.908Z,83.00
2018-08-09T04:10:35.896Z,82.39
2018-08-09T04:11:35.901Z,81.99
2018-08-09T04:12:35.895Z,81.99
2018-08-09T04:13:35.873Z,81.68
2018-08-09T04:14:35.882Z,81.79
2018-08-09T04:15:35.845Z,82.09
2018-08-09T04:16:35.844Z,81.99
2018-08-09T04:17:35.823Z,82.39
2018-08-09T04:18:35.808Z,82.19
2018-08-09T04:19:35.803Z,81.99
2018-08-09T04:20:35.788Z,82.09
2018-08-09T04:21:35.804Z,82.29
2018-08-09T04:22:35.764Z,82.09
2018-08-09T04:23:35.767Z,81.99
2018-08-09T04:24:35.743Z,82.09
2018-08-09T04:25:35.759Z,81.89
2018-08-09T04:26:35.827Z,82.70
2018-08-09T04:27:36.371Z,82.09
2018-08-09T04:28:35.704Z,82.09
2018-08-09T04:29:35.691Z,81.89
2018-08-09T04:30:35.674Z,82.59
2018-08-09T04:31:35.705Z,83.20
2018-08-09T04:32:35.652Z,82.59
2018-08-09T04:33:35.640Z,81.18
2018-08-09T04:34:35.637Z,81.79
2018-08-09T04:35:35.622Z,81.08
2018-08-09T04:36:35.611Z,81.08
2018-08-09T04:37:35.619Z,81.79
2018-08-09T04:38:35.586Z,82.53
2018-08-09T04:39:35.589Z,82.64
2018-08-09T04:40:35.572Z,82.70
2018-08-09T04:41:35.576Z,82.70
2018-08-09T04:42:35.554Z,82.59
2018-08-09T04:43:35.535Z,81.93
2018-08-09T04:44:35.523Z,81.82
2018-08-09T04:45:35.514Z,82.64
2018-08-09T04:46:35.499Z,83.10
2018-08-09T04:47:35.509Z,82.59
2018-08-09T04:48:35.476Z,82.73
2018-08-09T04:49:35.470Z,83.40
2018-08-09T04:50:35.456Z,83.54
2018-08-09T04:51:35.454Z,83.20
2018-08-09T04:52:35.442Z,83.24
2018-08-09T04:53:35.419Z,83.70
2018-08-09T04:54:35.415Z,82.39
2018-08-09T04:55:35.400Z,82.84
2018-08-09T04:56:35.390Z,82.90
2018-08-09T04:57:35.389Z,83.70
2018-08-09T04:58:35.371Z,82.93
2018-08-09T04:59:35.356Z,82.84
2018-08-09T05:00:35.351Z,82.70
2018-08-09T05:01:35.334Z,82.70
2018-08-09T05:02:35.336Z,82.50
2018-08-09T05:03:35.311Z,82.33
2018-08-09T05:04:35.299Z,82.50
2018-08-09T05:05:35.290Z,82.39
2018-08-09T05:06:35.281Z,83.00
2018-08-09T05:07:35.280Z,83.50
2018-08-09T05:08:35.255Z,82.70
2018-08-09T05:09:35.246Z,82.79
2018-08-09T05:10:35.237Z,83.10
2018-08-09T05:11:35.238Z,83.50
2018-08-09T05:12:35.227Z,82.70
2018-08-09T05:13:35.199Z,82.59
2018-08-09T05:14:35.190Z,82.70
2018-08-09T05:15:35.181Z,82.59
2018-08-09T05:16:35.170Z,82.70
2018-08-09T05:17:35.171Z,82.50
2018-08-09T05:18:35.146Z,82.79
2018-08-09T05:19:35.136Z,83.60
2018-08-09T05:20:35.123Z,83.91
2018-08-09T05:21:35.119Z,83.00
2018-08-09T05:22:35.114Z,83.50
2018-08-09T05:23:35.096Z,82.70
2018-08-09T05:24:35.090Z,83.76
2018-08-09T05:25:35.069Z,83.80
2018-08-09T05:26:35.067Z,83.66
2018-08-09T05:27:35.073Z,82.70
2018-08-09T05:28:35.049Z,82.65
2018-08-09T05:29:35.031Z,82.50
2018-08-09T05:30:35.017Z,81.99
2018-08-09T05:31:35.002Z,81.95
2018-08-09T05:32:34.991Z,82.45
2018-08-09T05:33:35.002Z,82.35
2018-08-09T05:34:34.973Z,82.05
2018-08-09T05:35:34.990Z,82.35
2018-08-09T05:36:34.947Z,82.56
2018-08-09T05:37:34.938Z,83.46
2018-08-09T05:38:34.945Z,81.95
2018-08-09T05:39:34.914Z,82.05
2018-08-09T05:40:34.904Z,82.65
2018-08-09T05:41:34.895Z,81.45
2018-08-09T05:42:34.888Z,81.95
2018-08-09T05:43:34.897Z,82.35
2018-08-09T05:44:34.864Z,83.26
2018-08-09T05:45:34.854Z,83.26
2018-08-09T05:46:34.864Z,83.87
2018-08-09T05:47:34.827Z,83.76
2018-08-09T05:48:34.833Z,83.26
2018-08-09T05:49:34.802Z,83.76
2018-08-09T05:50:34.804Z,83.36
2018-08-09T05:51:34.779Z,83.56
2018-08-09T05:52:34.800Z,83.76
2018-08-09T05:53:34.768Z,83.56
2018-08-09T05:54:34.746Z,83.76
2018-08-09T05:55:34.736Z,82.25
2018-08-09T05:56:34.732Z,83.56
2018-08-09T05:57:34.714Z,83.32
2018-08-09T05:58:34.795Z,83.32
2018-08-09T05:59:34.697Z,83.42
2018-08-09T06:00:34.692Z,82.31
2018-08-09T06:01:34.674Z,82.62
2018-08-09T06:02:34.667Z,83.83
2018-08-09T06:03:34.660Z,83.22
2018-08-09T06:04:34.691Z,83.12
2018-08-09T06:05:34.667Z,82.62
2018-08-09T06:06:34.662Z,82.31
2018-08-09T06:07:34.612Z,83.69
2018-08-09T06:08:34.623Z,82.18
2018-08-09T06:09:34.609Z,82.31
2018-08-09T06:10:34.572Z,83.08
2018-08-09T06:11:34.570Z,83.28
2018-08-09T06:12:34.556Z,83.28
2018-08-09T06:13:34.670Z,83.08
2018-08-09T06:14:34.549Z,83.04
2018-08-09T06:15:34.525Z,81.39
2018-08-09T06:16:34.509Z,80.19
2018-08-09T06:17:34.496Z,80.85
2018-08-09T06:18:34.516Z,79.91
2018-08-09T06:19:34.484Z,79.17
2018-08-09T06:20:34.461Z,78.56
2018-08-09T06:21:34.460Z,77.72
2018-08-09T06:22:34.438Z,77.52
2018-08-09T06:23:34.469Z,76.38
2018-08-09T06:24:34.430Z,75.64
2018-08-09T06:25:34.422Z,75.24
2018-08-09T06:26:34.457Z,75.41
2018-08-09T06:27:34.382Z,75.21
2018-08-09T06:28:34.374Z,75.17
2018-08-09T06:29:34.401Z,75.27
2018-08-09T06:30:34.353Z,73.53
2018-08-09T06:31:34.341Z,73.70
2018-08-09T06:32:34.328Z,72.39
2018-08-09T06:33:34.453Z,71.50
2018-08-09T06:34:34.319Z,72.46
2018-08-09T06:35:34.297Z,72.76
2018-08-09T06:36:34.283Z,72.42
2018-08-09T06:37:34.278Z,71.42
2018-08-09T06:38:34.269Z,73.19
2018-08-09T06:39:34.263Z,70.59
2018-08-09T06:40:34.243Z,71.06
2018-08-09T06:41:34.235Z,70.62
2018-08-09T06:42:34.221Z,70.62
2018-08-09T06:43:34.209Z,68.43
2018-08-09T06:44:34.214Z,70.23
2018-08-09T06:45:34.187Z,66.60
2018-08-09T06:46:34.174Z,66.39
2018-08-09T06:47:34.214Z,67.46
2018-08-09T06:48:34.153Z,67.57
2018-08-09T06:49:34.153Z,68.83
2018-08-09T06:50:34.131Z,67.63
2018-08-09T06:51:34.126Z,68.19
2018-08-09T06:52:34.111Z,67.60
2018-08-09T06:53:34.100Z,66.40
2018-08-09T06:54:34.097Z,68.43
2018-08-09T06:55:34.075Z,66.33
2018-08-09T06:56:34.071Z,68.76
2018-08-09T06:57:34.058Z,69.66
2018-08-09T06:58:34.047Z,69.66
2018-08-09T06:59:34.062Z,70.09
2018-08-09T07:00:34.029Z,70.39
2018-08-09T07:01:34.013Z,70.49
2018-08-09T07:02:34.038Z,69.99
2018-08-09T07:03:33.988Z,69.99
2018-08-09T07:04:33.995Z,71.09
2018-08-09T07:05:33.982Z,71.09
2018-08-09T07:06:33.955Z,72.99
2018-08-09T07:07:33.959Z,70.79
2018-08-09T07:08:33.937Z,70.09
2018-08-09T07:09:33.924Z,69.66
2018-08-09T07:10:33.925Z,69.69
2018-08-09T07:11:33.901Z,70.09
2018-08-09T07:12:33.894Z,70.49
2018-08-09T07:13:33.882Z,71.59
2018-08-09T07:14:33.868Z,71.79
2018-08-09T07:15:33.872Z,73.45
2018-08-09T07:16:33.847Z,70.86
2018-08-09T07:17:33.841Z,71.48
2018-08-09T07:18:33.828Z,70.39
2018-08-09T07:19:33.817Z,68.76
2018-08-09T07:20:33.817Z,68.03
2018-08-09T07:21:33.797Z,64.12
2018-08-09T07:22:33.783Z,64.22
2018-08-09T07:23:33.771Z,64.91
2018-08-09T07:24:33.761Z,65.01
2018-08-09T07:25:33.767Z,63.85
2018-08-09T07:26:33.856Z,63.95
2018-08-09T07:27:33.730Z,64.81
2018-08-09T07:28:33.719Z,64.01
2018-08-09T07:29:33.726Z,64.31
2018-08-09T07:30:33.713Z,64.01
2018-08-09T07:31:33.685Z,64.81
2018-08-09T07:32:33.675Z,63.56
2018-08-09T07:33:33.666Z,63.33
2018-08-09T07:34:33.658Z,61.14
2018-08-09T07:35:33.653Z,60.09
2018-08-09T07:36:33.674Z,61.31
2018-08-09T07:37:33.619Z,62.04
2018-08-09T07:38:33.609Z,62.34
2018-08-09T07:39:33.690Z,60.55
2018-08-09T07:40:33.599Z,60.02
2018-08-09T07:41:33.579Z,62.21
2018-08-09T07:42:33.568Z,60.19
2018-08-09T07:43:33.555Z,63.17
2018-08-09T07:44:33.547Z,60.82
2018-08-09T07:45:33.550Z,60.42
2018-08-09T07:46:33.526Z,61.01
2018-08-09T07:47:33.516Z,60.02
2018-08-09T07:48:33.584Z,61.34
2018-08-09T07:49:33.492Z,61.54
2018-08-09T07:50:33.504Z,61.94
2018-08-09T07:51:33.468Z,62.63
2018-08-09T07:52:33.464Z,61.94
2018-08-09T07:53:33.448Z,61.31
2018-08-09T07:54:33.439Z,60.22
2018-08-09T07:55:33.439Z,60.71
2018-08-09T07:56:33.416Z,61.08
2018-08-09T07:57:33.419Z,60.36
2018-08-09T07:58:33.391Z,61.62
2018-08-09T07:59:33.383Z,61.59
2018-08-09T08:00:34.861Z,60.07
2018-08-09T08:01:33.359Z,57.40
2018-08-09T08:02:33.350Z,56.87
2018-08-09T08:03:33.447Z,59.12
2018-08-09T08:04:33.476Z,58.01
2018-08-09T08:05:33.425Z,57.18
2018-08-09T08:06:33.535Z,56.49
2018-08-09T08:07:33.393Z,54.52
2018-08-09T08:08:33.430Z,55.11
2018-08-09T08:09:33.275Z,53.99
2018-08-09T08:10:33.311Z,54.49
2018-08-09T08:11:33.263Z,56.27
2018-08-09T08:12:33.245Z,55.55
2018-08-09T08:13:33.233Z,54.06
2018-08-09T08:14:33.220Z,55.75
2018-08-09T08:15:33.208Z,54.44
2018-08-09T08:16:33.212Z,55.52
2018-08-09T08:17:33.223Z,53.12
2018-08-09T08:18:33.211Z,51.84
2018-08-09T08:19:33.164Z,52.70
2018-08-09T08:20:33.161Z,51.32
2018-08-09T08:21:33.156Z,52.91
2018-08-09T08:22:33.137Z,52.68
2018-08-09T08:23:33.125Z,53.54
2018-08-09T08:24:33.112Z,52.04
2018-08-09T08:25:33.102Z,51.64
2018-08-09T08:26:33.099Z,50.24
2018-08-09T08:27:33.081Z,49.13
2018-08-09T08:28:33.074Z,51.00
2018-08-09T08:29:33.061Z,50.21
2018-08-09T08:30:33.048Z,50.59
2018-08-09T08:31:33.047Z,49.60
2018-08-09T08:32:33.028Z,48.03
2018-08-09T08:33:33.016Z,49.40
2018-08-09T08:34:33.012Z,48.00
2018-08-09T08:35:33.000Z,52.92
2018-08-09T08:36:33.019Z,47.91
2018-08-09T08:37:32.974Z,52.01
2018-08-09T08:38:33.027Z,47.98
2018-08-09T08:39:32.964Z,48.18
2018-08-09T08:40:32.940Z,51.42
2018-08-09T08:41:32.946Z,47.61
2018-08-09T08:42:33.010Z,50.14
2018-08-09T08:43:32.908Z,47.78
2018-08-09T08:44:32.990Z,48.96
2018-08-09T08:45:32.888Z,50.02
2018-08-09T08:46:32.887Z,47.83
2018-08-09T08:47:32.918Z,46.17
2018-08-09T08:48:32.855Z,46.44
2018-08-09T08:49:32.844Z,46.04
2018-08-09T08:50:32.830Z,45.63
2018-08-09T08:51:32.827Z,46.71
2018-08-09T08:52:32.842Z,46.02
2018-08-09T08:53:32.812Z,46.31
2018-08-09T08:54:32.795Z,47.67
2018-08-09T08:55:32.782Z,46.08
2018-08-09T08:56:32.772Z,44.62
2018-08-09T08:57:32.782Z,45.80
2018-08-09T08:58:32.757Z,46.10
2018-08-09T08:59:32.740Z,47.37
2018-08-09T09:00:32.726Z,46.00
2018-08-09T09:01:32.715Z,46.59
2018-08-09T09:02:32.734Z,45.98
2018-08-09T09:03:32.700Z,46.56
2018-08-09T09:04:32.694Z,45.95
2018-08-09T09:05:32.681Z,47.33
2018-08-09T09:06:32.661Z,46.03
2018-08-09T09:07:32.695Z,45.44
2018-08-09T09:08:32.667Z,45.52
2018-08-09T09:09:32.631Z,44.54
2018-08-09T09:10:32.621Z,46.01
2018-08-09T09:11:32.610Z,43.54
2018-08-09T09:12:32.635Z,43.71
2018-08-09T09:13:32.590Z,42.03
2018-08-09T09:14:32.578Z,43.40
2018-08-09T09:15:32.569Z,45.94
2018-08-09T09:16:32.567Z,44.45
2018-08-09T09:17:32.579Z,42.11
2018-08-09T09:18:32.532Z,42.69
2018-08-09T09:19:32.537Z,43.38
2018-08-09T09:20:32.511Z,43.26
2018-08-09T09:21:32.512Z,41.99
2018-08-09T09:22:32.519Z,43.43
2018-08-09T09:23:32.483Z,41.87
2018-08-09T09:24:32.467Z,43.51
2018-08-09T09:25:32.480Z,40.95
2018-08-09T09:26:32.447Z,40.83
2018-08-09T09:27:32.449Z,41.52
2018-08-09T09:28:32.440Z,41.13
2018-08-09T09:29:32.414Z,40.91
2018-08-09T09:30:32.416Z,38.96
2018-08-09T09:31:32.399Z,41.50
2018-08-09T09:32:32.427Z,40.72
2018-08-09T09:33:32.377Z,38.85
2018-08-09T09:34:32.357Z,39.43
2018-08-09T09:35:32.351Z,39.16
2018-08-09T09:36:32.440Z,38.87
2018-08-09T09:37:32.325Z,39.76
2018-08-09T09:38:32.340Z,40.06
2018-08-09T09:39:32.318Z,39.49
2018-08-09T09:40:32.295Z,39.67
2018-08-09T09:41:32.290Z,41.56
2018-08-09T09:42:32.298Z,40.58
2018-08-09T09:43:32.302Z,40.89
2018-08-09T09:44:32.253Z,44.21
2018-08-09T09:45:32.251Z,43.00
2018-08-09T09:46:32.234Z,40.17
2018-08-09T09:47:32.236Z,40.95
2018-08-09T09:48:32.236Z,39.76
2018-08-09T09:49:32.208Z,40.83
2018-08-09T09:50:32.186Z,39.10
2018-08-09T09:51:32.185Z,39.49
2018-08-09T09:52:32.166Z,41.44
2018-08-09T09:53:32.172Z,43.37
2018-08-09T09:54:32.146Z,39.28
2018-08-09T09:55:32.134Z,41.91
2018-08-09T09:56:32.129Z,42.96
2018-08-09T09:57:32.110Z,39.65
2018-08-09T09:58:32.116Z,39.47
2018-08-09T09:59:32.085Z,41.91
2018-08-09T10:00:32.078Z,39.98
2018-08-09T10:01:32.066Z,39.69
2018-08-09T10:02:32.076Z,39.72
2018-08-09T10:03:32.070Z,41.21
2018-08-09T10:04:32.036Z,42.69
2018-08-09T10:05:32.019Z,43.49
2018-08-09T10:06:32.012Z,42.07
2018-08-09T10:07:32.003Z,43.56
2018-08-09T10:08:32.004Z,44.48
2018-08-09T10:09:31.987Z,44.51
2018-08-09T10:10:31.990Z,44.62
2018-08-09T10:11:31.961Z,44.74
2018-08-09T10:12:31.950Z,45.85
2018-08-09T10:13:31.986Z,47.71
2018-08-09T10:14:31.923Z,46.06
2018-08-09T10:15:31.916Z,46.26
2018-08-09T10:16:31.911Z,47.44
2018-08-09T10:17:31.900Z,47.56
2018-08-09T10:18:31.884Z,47.17
2018-08-09T10:19:31.904Z,47.58
2018-08-09T10:20:31.871Z,47.58
2018-08-09T10:21:31.847Z,48.37
2018-08-09T10:22:31.859Z,47.09
2018-08-09T10:23:31.826Z,47.39
2018-08-09T10:24:31.835Z,47.88
2018-08-09T10:25:31.817Z,48.08
2018-08-09T10:26:31.886Z,47.22
2018-08-09T10:27:31.798Z,46.92
2018-08-09T10:28:31.775Z,48.27
2018-08-09T10:29:31.784Z,47.61
2018-08-09T10:30:31.766Z,46.72
2018-08-09T10:31:31.745Z,48.79
2018-08-09T10:32:31.731Z,47.51
2018-08-09T10:33:31.732Z,47.22
2018-08-09T10:34:31.897Z,47.12
2018-08-09T10:35:31.723Z,47.02
2018-08-09T10:36:31.692Z,47.41
2018-08-09T10:37:31.680Z,46.43
2018-08-09T10:38:31.667Z,47.71
2018-08-09T10:39:31.704Z,46.62
2018-08-09T10:40:31.651Z,46.92
2018-08-09T10:41:31.650Z,47.12
2018-08-09T10:42:31.709Z,47.71
2018-08-09T10:43:31.626Z,47.09
2018-08-09T10:44:31.631Z,47.49
2018-08-09T10:45:31.590Z,49.65
2018-08-09T10:46:31.591Z,50.24
2018-08-09T10:47:31.583Z,46.28
2018-08-09T10:48:31.572Z,46.48
2018-08-09T10:49:31.582Z,47.47
2018-08-09T10:50:31.544Z,45.79
2018-08-09T10:51:31.542Z,46.68
2018-08-09T10:52:31.526Z,46.48
2018-08-09T10:53:31.513Z,45.60
2018-08-09T10:54:31.514Z,45.99
2018-08-09T10:55:31.522Z,47.66
2018-08-09T10:56:31.475Z,46.09
2018-08-09T10:57:31.466Z,45.32
2018-08-09T10:58:31.452Z,46.21
2018-08-09T10:59:31.456Z,46.28
2018-08-09T11:00:31.435Z,46.19
2018-08-09T11:01:31.426Z,43.73
2018-08-09T11:02:31.416Z,44.52
2018-08-09T11:03:31.413Z,44.62
2018-08-09T11:04:31.429Z,46.28
2018-08-09T11:05:31.380Z,43.43
2018-08-09T11:06:31.378Z,43.63
2018-08-09T11:07:31.364Z,47.17
2018-08-09T11:08:31.348Z,45.77
2018-08-09T11:09:31.390Z,45.57
2018-08-09T11:10:31.331Z,46.19
2018-08-09T11:11:31.316Z,48.05
2018-08-09T11:12:31.305Z,44.10
2018-08-09T11:13:31.320Z,47.34
2018-08-09T11:14:31.325Z,40.27
2018-08-09T11:15:31.280Z,44.69
2018-08-09T11:16:31.266Z,43.14
2018-08-09T11:17:31.260Z,42.35
2018-08-09T11:18:31.253Z,43.63
2018-08-09T11:19:31.232Z,41.56
2018-08-09T11:20:31.250Z,44.01
2018-08-09T11:21:31.210Z,43.53
2018-08-09T11:22:31.207Z,47.17
2018-08-09T11:23:31.210Z,47.47
2018-08-09T11:24:31.179Z,47.44
2018-08-09T11:25:31.201Z,46.97
2018-08-09T11:26:31.169Z,47.66
2018-08-09T11:27:31.150Z,47.36
2018-08-09T11:28:31.138Z,43.51
2018-08-09T11:29:31.133Z,46.17
2018-08-09T11:30:31.233Z,45.57
2018-08-09T11:31:31.111Z,44.59
2018-08-09T11:32:31.101Z,46.36
2018-08-09T11:33:31.096Z,43.02
2018-08-09T11:34:31.082Z,43.32
2018-08-09T11:35:31.091Z,41.35
2018-08-09T11:36:31.086Z,39.86
2018-08-09T11:37:31.042Z,41.24
2018-08-09T11:38:31.038Z,43.86
2018-08-09T11:39:31.025Z,44.55
2018-08-09T11:40:31.063Z,45.43
2018-08-09T11:41:31.004Z,43.47
2018-08-09T11:42:30.987Z,42.10
2018-08-09T11:43:30.979Z,43.37
2018-08-09T11:44:30.978Z,42.58
2018-08-09T11:45:30.985Z,38.64
2018-08-09T11:46:30.958Z,40.31
2018-08-09T11:47:30.942Z,40.11
2018-08-09T11:48:30.927Z,39.43
2018-08-09T11:49:30.936Z,40.09
2018-08-09T11:50:30.919Z,41.96
2018-08-09T11:51:30.900Z,38.04
2018-08-09T11:52:30.885Z,36.18
2018-08-09T11:53:30.880Z,38.33
2018-08-09T11:54:30.864Z,41.64
2018-08-09T11:55:30.878Z,42.23
2018-08-09T11:56:30.977Z,41.55
2018-08-09T11:57:30.834Z,39.39
2018-08-09T11:58:30.829Z,44.38
2018-08-09T11:59:30.815Z,39.00
2018-08-09T12:00:30.832Z,40.17
2018-08-09T12:01:30.855Z,36.94
2018-08-09T12:02:30.779Z,39.86
2018-08-09T12:03:30.769Z,37.63
2018-08-09T12:04:30.823Z,41.13
2018-08-09T12:05:30.765Z,42.41
2018-08-09T12:06:30.769Z,40.25
2018-08-09T12:07:30.741Z,35.16
2018-08-09T12:08:30.721Z,35.94
2018-08-09T12:09:30.756Z,39.74
2018-08-09T12:10:30.707Z,40.94
2018-08-09T12:11:30.680Z,37.88
2018-08-09T12:12:30.671Z,39.74
2018-08-09T12:13:30.686Z,39.74
2018-08-09T12:14:30.652Z,37.59
2018-08-09T12:15:30.652Z,35.93
2018-08-09T12:16:30.634Z,36.02
2018-08-09T12:17:30.619Z,36.22
2018-08-09T12:18:30.607Z,40.23
2018-08-09T12:19:30.599Z,35.63
2018-08-09T12:20:30.596Z,38.37
2018-08-09T12:21:30.576Z,34.06
2018-08-09T12:22:30.565Z,35.63
2018-08-09T12:23:30.555Z,34.06
2018-08-09T12:24:30.551Z,37.21
2018-08-09T12:25:30.964Z,38.68
2018-08-09T12:26:30.522Z,36.43
2018-08-09T12:27:30.513Z,35.66
2018-08-09T12:28:30.501Z,36.74
2018-08-09T12:29:30.500Z,36.06
2018-08-09T12:30:30.511Z,38.12
2018-08-09T12:31:30.482Z,38.51
2018-08-09T12:32:30.461Z,43.60
2018-08-09T12:33:30.451Z,39.78
2018-08-09T12:34:30.439Z,39.41
2018-08-09T12:35:30.442Z,40.29
2018-08-09T12:36:30.486Z,40.29
2018-08-09T12:37:30.410Z,41.56
2018-08-09T12:38:30.398Z,39.31
2018-08-09T12:39:30.392Z,34.11
2018-08-09T12:40:30.386Z,36.37
2018-08-09T12:41:30.366Z,36.57
2018-08-09T12:42:30.356Z,36.76
2018-08-09T12:43:30.346Z,39.78
2018-08-09T12:44:30.338Z,39.88
2018-08-09T12:45:30.384Z,38.04
2018-08-09T12:46:30.313Z,41.86
2018-08-09T12:47:30.307Z,39.80
2018-08-09T12:48:30.297Z,38.23
2018-08-09T12:49:30.281Z,39.31
2018-08-09T12:50:30.287Z,40.39
2018-08-09T12:51:30.260Z,36.08
2018-08-09T12:52:30.251Z,39.41
2018-08-09T12:53:30.242Z,40.76
2018-08-09T12:54:30.229Z,37.73
2018-08-09T12:55:30.230Z,40.17
2018-08-09T12:56:30.217Z,39.88
2018-08-09T12:57:30.203Z,37.92
2018-08-09T12:58:30.191Z,40.17
2018-08-09T12:59:30.179Z,39.98
2018-08-09T13:00:30.188Z,36.57
2018-08-09T13:01:30.158Z,37.35
2018-08-09T13:02:30.149Z,36.45
2018-08-09T13:03:30.142Z,37.52
2018-08-09T13:04:30.133Z,39.09
2018-08-09T13:05:30.133Z,40.27
2018-08-09T13:06:30.109Z,35.76
2018-08-09T13:07:30.099Z,39.78
2018-08-09T13:08:30.088Z,42.03
2018-08-09T13:09:30.078Z,41.66
2018-08-09T13:10:30.078Z,38.62
2018-08-09T13:11:30.057Z,36.58
2018-08-09T13:12:30.045Z,39.31
2018-08-09T13:13:30.036Z,41.37
2018-08-09T13:14:30.026Z,36.88
2018-08-09T13:15:30.026Z,38.53
2018-08-09T13:16:30.005Z,42.15
2018-08-09T13:17:29.995Z,36.08
2018-08-09T13:18:29.981Z,39.29
2018-08-09T13:19:29.975Z,40.08
2018-08-09T13:20:29.994Z,41.05
2018-08-09T13:21:29.954Z,38.60
2018-08-09T13:22:29.945Z,37.94
2018-08-09T13:23:29.957Z,41.76
2018-08-09T13:24:29.920Z,40.98
2018-08-09T13:25:29.914Z,39.22
2018-08-09T13:26:29.913Z,41.47
2018-08-09T13:27:29.890Z,41.68
2018-08-09T13:28:29.879Z,39.90
2018-08-09T13:29:29.869Z,41.09
2018-08-09T13:30:29.870Z,39.03
2018-08-09T13:31:29.857Z,40.88
2018-08-09T13:32:29.844Z,39.41
2018-08-09T13:33:29.827Z,40.98
2018-08-09T13:34:29.819Z,41.19
2018-08-09T13:35:29.806Z,40.31
2018-08-09T13:36:29.810Z,41.88
2018-08-09T13:37:29.786Z,39.14
2018-08-09T13:38:29.775Z,41.09
2018-08-09T13:39:29.765Z,43.35
2018-08-09T13:40:29.811Z,38.74
2018-08-09T13:41:29.760Z,41.80
2018-08-09T13:42:29.730Z,36.19
2018-08-09T13:43:29.724Z,41.58
2018-08-09T13:44:29.713Z,38.54
2018-08-09T13:45:29.703Z,38.35
2018-08-09T13:46:29.703Z,39.70
2018-08-09T13:47:29.689Z,36.96
2018-08-09T13:48:29.671Z,36.37
2018-08-09T13:49:29.660Z,38.04
2018-08-09T13:50:29.659Z,36.96
2018-08-09T13:51:29.703Z,38.92
2018-08-09T13:52:29.631Z,39.41
2018-08-09T13:53:29.621Z,41.37
2018-08-09T13:54:29.610Z,36.88
2018-08-09T13:55:29.601Z,37.76
2018-08-09T13:56:29.605Z,39.14
2018-08-09T13:57:29.581Z,40.19
2018-08-09T13:58:29.638Z,37.15
2018-08-09T13:59:29.560Z,35.80
2018-08-09T14:00:29.550Z,39.14
2018-08-09T14:01:29.549Z,43.35
2018-08-09T14:02:29.528Z,42.47
2018-08-09T14:03:29.599Z,36.09
2018-08-09T14:04:29.599Z,37.35
2018-08-09T14:05:29.513Z,37.15
2018-08-09T14:06:29.494Z,40.00
2018-08-09T14:07:29.476Z,36.18
2018-08-09T14:08:29.468Z,34.98
2018-08-09T14:09:29.480Z,39.59
2018-08-09T14:10:29.448Z,40.16
2018-08-09T14:11:29.582Z,37.90
2018-08-09T14:12:29.424Z,39.37
2018-08-09T14:13:29.422Z,39.49
2018-08-09T14:14:29.404Z,38.53
2018-08-09T14:15:29.392Z,37.74
2018-08-09T14:16:29.393Z,35.68
2018-08-09T14:17:29.373Z,40.29
2018-08-09T14:18:29.405Z,40.70
2018-08-09T14:19:29.395Z,40.11
2018-08-09T14:20:29.342Z,34.81
2018-08-09T14:21:29.365Z,35.21
2018-08-09T14:22:29.320Z,36.78
2018-08-09T14:23:29.349Z,36.66
2018-08-09T14:24:29.363Z,38.62
2018-08-09T14:25:29.291Z,42.45
2018-08-09T14:26:29.295Z,39.43
2018-08-09T14:27:29.269Z,40.01
2018-08-09T14:28:29.261Z,39.62
2018-08-09T14:29:29.250Z,37.98
2018-08-09T14:30:29.326Z,35.33
2018-08-09T14:31:29.362Z,36.09
2018-08-09T14:32:29.217Z,36.08
2018-08-09T14:33:29.210Z,39.31
2018-08-09T14:34:29.198Z,35.68
2018-08-09T14:35:29.188Z,35.68
2018-08-09T14:36:29.189Z,36.08
2018-08-09T14:37:29.167Z,38.82
2018-08-09T14:38:29.157Z,38.04
2018-08-09T14:39:29.148Z,35.68
2018-08-09T14:40:29.136Z,36.66
2018-08-09T14:41:29.140Z,37.84
2018-08-09T14:42:29.247Z,37.84
2018-08-09T14:43:29.105Z,36.88
2018-08-09T14:44:29.096Z,35.02
2018-08-09T14:45:29.085Z,34.80
2018-08-09T14:46:29.088Z,36.86
2018-08-09T14:47:29.068Z,36.65
2018-08-09T14:48:29.054Z,39.80
2018-08-09T14:49:29.045Z,39.11
2018-08-09T14:50:29.033Z,37.94
2018-08-09T14:51:29.034Z,38.06
2018-08-09T14:52:29.019Z,37.76
2018-08-09T14:53:29.004Z,37.56
2018-08-09T14:54:28.992Z,38.45
2018-08-09T14:55:28.986Z,36.49
2018-08-09T14:56:28.990Z,36.58
2018-08-09T14:57:28.961Z,35.29
2018-08-09T14:58:28.953Z,35.06
2018-08-09T14:59:28.943Z,35.85
2018-08-09T15:00:29.030Z,33.48
2018-08-09T15:01:28.941Z,33.67
2018-08-09T15:02:28.911Z,36.71
2018-08-09T15:03:28.899Z,37.29
2018-08-09T15:04:28.892Z,38.98
2018-08-09T15:05:28.882Z,40.45
2018-08-09T15:06:28.886Z,42.11
2018-08-09T15:07:28.863Z,43.90
2018-08-09T15:08:28.848Z,41.05
2018-08-09T15:09:28.839Z,38.62
2018-08-09T15:10:28.829Z,39.23
2018-08-09T15:11:28.845Z,38.45
2018-08-09T15:12:28.807Z,40.33
2018-08-09T15:13:28.799Z,38.07
2018-08-09T15:14:28.786Z,40.92
2018-08-09T15:15:28.814Z,40.13
2018-08-09T15:16:28.786Z,38.29
2018-08-09T15:17:28.756Z,36.42
2018-08-09T15:18:28.746Z,39.86
2018-08-09T15:19:28.735Z,44.37
2018-08-09T15:20:28.727Z,43.29
2018-08-09T15:21:28.739Z,42.11
2018-08-09T15:22:28.727Z,44.67
2018-08-09T15:23:28.697Z,42.82
2018-08-09T15:24:28.721Z,43.22
2018-08-09T15:25:28.672Z,45.28
2018-08-09T15:26:28.667Z,45.97
2018-08-09T15:27:28.666Z,46.58
2018-08-09T15:28:28.641Z,48.15
2018-08-09T15:29:28.635Z,49.06
2018-08-09T15:30:28.625Z,47.49
2018-08-09T15:31:28.612Z,42.57
2018-08-09T15:32:28.613Z,40.01
2018-08-09T15:33:28.589Z,58.72
2018-08-09T15:34:28.582Z,67.51
2018-08-09T15:35:28.574Z,68.66
2018-08-09T15:36:28.645Z,63.18
2018-08-09T15:37:28.558Z,57.91
2018-08-09T15:38:28.542Z,52.86
2018-08-09T15:39:28.526Z,53.28
2018-08-09T15:40:28.518Z,64.08
2018-08-09T15:41:28.512Z,68.60
2018-08-09T15:42:28.504Z,73.94
2018-08-09T15:43:28.492Z,67.18
2018-08-09T15:44:28.475Z,66.68
2018-08-09T15:45:28.468Z,72.96
2018-08-09T15:46:28.456Z,77.46
2018-08-09T15:47:28.615Z,70.32
2018-08-09T15:48:28.432Z,70.15
2018-08-09T15:49:28.421Z,58.17
2018-08-09T15:50:28.419Z,68.30
2018-08-09T15:51:28.401Z,71.58
2018-08-09T15:52:28.402Z,68.80
2018-08-09T15:53:28.380Z,58.37
2018-08-09T15:54:28.374Z,60.83
2018-08-09T15:55:28.360Z,67.18
2018-08-09T15:56:28.351Z,70.85
2018-08-09T15:57:28.351Z,62.12
2018-08-09T15:58:28.332Z,71.31
2018-08-09T15:59:28.316Z,70.62
2018-08-09T16:00:28.310Z,71.54
2018-08-09T16:01:28.298Z,72.53
2018-08-09T16:02:28.375Z,63.10
2018-08-09T16:03:28.280Z,72.40
2018-08-09T16:04:28.266Z,66.25
2018-08-09T16:05:28.259Z,70.85
2018-08-09T16:06:28.246Z,64.99
2018-08-09T16:07:28.245Z,71.84
2018-08-09T16:08:28.239Z,70.62
2018-08-09T16:09:28.218Z,56.73
2018-08-09T16:10:28.211Z,61.29
2018-08-09T16:11:28.192Z,60.57
2018-08-09T16:12:28.200Z,63.45
2018-08-09T16:13:28.177Z,67.87
2018-08-09T16:14:28.161Z,63.42
2018-08-09T16:15:28.151Z,59.15
2018-08-09T16:16:28.187Z,64.11
2018-08-09T16:17:28.162Z,67.38
2018-08-09T16:18:28.120Z,57.46
2018-08-09T16:19:28.115Z,58.26
2018-08-09T16:20:28.100Z,60.71
2018-08-09T16:21:28.113Z,60.51
2018-08-09T16:22:28.090Z,60.91
2018-08-09T16:23:28.067Z,64.87
2018-08-09T16:24:28.058Z,55.93
2018-08-09T16:25:28.046Z,58.60
2018-08-09T16:26:28.036Z,55.01
2018-08-09T16:27:28.039Z,53.92
2018-08-09T16:28:28.017Z,54.02
2018-08-09T16:29:28.005Z,59.06
2018-08-09T16:30:27.990Z,64.81
2018-08-09T16:31:27.982Z,70.02
2018-08-09T16:32:27.984Z,70.91
2018-08-09T16:33:27.972Z,68.40
2018-08-09T16:34:27.948Z,72.89
2018-08-09T16:35:27.938Z,76.80
2018-08-09T16:36:27.935Z,77.99
2018-08-09T16:37:27.932Z,76.25
2018-08-09T16:38:27.905Z,76.18
2018-08-09T16:39:27.896Z,71.25
2018-08-09T16:40:27.886Z,74.13
2018-08-09T16:41:27.874Z,66.11
2018-08-09T16:42:27.876Z,73.41
2018-08-09T16:43:27.852Z,75.06
2018-08-09T16:44:27.840Z,78.14
2018-08-09T16:45:27.833Z,78.04
2018-08-09T16:46:27.874Z,79.83
2018-08-09T16:47:27.822Z,77.78
2018-08-09T16:48:27.802Z,76.89
2018-08-09T16:49:27.788Z,75.10
2018-08-09T16:50:27.776Z,74.90
2018-08-09T16:51:27.768Z,69.06
2018-08-09T16:52:27.765Z,72.91